createdAt,value
2017-09-13T00:00:17.384Z,45.92
2017-09-13T00:02:45.050Z,46.14
2017-09-13T00:05:12.753Z,45.99
2017-09-13T00:07:40.354Z,45.99
2017-09-13T00:10:07.930Z,46.10
2017-09-13T00:12:35.502Z,46.09
2017-09-13T00:15:03.063Z,46.13
2017-09-13T00:17:30.777Z,46.08
2017-09-13T00:19:59.206Z,46.21
2017-09-13T00:22:26.849Z,46.15
2017-09-13T00:24:54.613Z,46.22
2017-09-13T00:27:22.124Z,46.24
2017-09-13T00:29:49.682Z,46.27
2017-09-13T00:32:17.940Z,46.22
2017-09-13T00:34:46.802Z,46.28
2017-09-13T00:37:14.444Z,46.28
2017-09-13T00:39:42.103Z,46.39
2017-09-13T00:42:09.766Z,46.35
2017-09-13T00:44:37.437Z,46.47
2017-09-13T00:47:06.167Z,46.40
2017-09-13T00:49:33.836Z,46.56
2017-09-13T00:52:01.575Z,46.44
2017-09-13T00:54:29.202Z,46.53
2017-09-13T00:56:56.844Z,46.48
2017-09-13T00:59:24.580Z,46.48
2017-09-13T01:01:52.312Z,46.52
2017-09-13T01:04:20.114Z,46.43
2017-09-13T01:06:48.603Z,46.37
2017-09-13T01:09:16.645Z,46.29
2017-09-13T01:14:18.310Z,46.63
2017-09-13T01:16:45.968Z,46.77
2017-09-13T01:19:13.748Z,46.87
2017-09-13T01:21:41.395Z,46.99
2017-09-13T01:24:09.104Z,47.14
2017-09-13T01:26:36.753Z,47.20
2017-09-13T01:29:04.318Z,47.20
2017-09-13T01:31:31.942Z,47.16
2017-09-13T01:33:59.525Z,47.20
2017-09-13T01:36:27.187Z,47.08
2017-09-13T01:38:54.787Z,47.12
2017-09-13T01:41:22.398Z,47.07
2017-09-13T01:43:50.076Z,47.19
2017-09-13T01:46:17.783Z,47.04
2017-09-13T01:51:23.882Z,47.08
2017-09-13T01:53:51.697Z,47.05
2017-09-13T01:56:19.493Z,47.04
2017-09-13T01:58:47.286Z,47.04
2017-09-13T02:04:00.444Z,47.07
2017-09-13T02:06:28.480Z,47.12
2017-09-13T02:08:56.204Z,47.09
2017-09-13T02:11:26.771Z,47.11
2017-09-13T02:13:54.355Z,47.04
2017-09-13T02:16:21.944Z,47.06
2017-09-13T02:19:10.883Z,47.08
2017-09-13T02:21:38.588Z,47.07
2017-09-13T02:24:06.449Z,46.96
2017-09-13T02:26:44.825Z,46.90
2017-09-13T02:29:12.427Z,46.91
2017-09-13T02:31:40.043Z,46.87
2017-09-13T02:34:28.896Z,46.96
2017-09-13T02:36:56.588Z,46.95
2017-09-13T02:39:24.267Z,46.93
2017-09-13T02:41:51.861Z,46.84
2017-09-13T02:44:19.423Z,46.85
2017-09-13T02:46:47.051Z,46.74
2017-09-13T02:49:14.726Z,46.73
2017-09-13T02:51:42.363Z,46.67
2017-09-13T02:54:09.939Z,46.72
2017-09-13T02:56:37.608Z,46.73
2017-09-13T02:59:05.783Z,46.64
2017-09-13T03:01:33.468Z,46.64
2017-09-13T03:04:01.051Z,46.66
2017-09-13T03:06:49.475Z,46.60
2017-09-13T03:09:17.041Z,46.54
2017-09-13T03:11:44.732Z,46.52
2017-09-13T03:14:13.211Z,46.47
2017-09-13T03:16:42.641Z,46.54
2017-09-13T03:19:10.331Z,46.42
2017-09-13T03:21:37.936Z,46.31
2017-09-13T03:24:20.990Z,46.18
2017-09-13T03:26:48.687Z,46.12
2017-09-13T03:29:16.273Z,46.16
2017-09-13T03:34:40.907Z,45.95
2017-09-13T03:37:08.510Z,45.97
2017-09-13T03:39:36.139Z,46.07
2017-09-13T03:42:03.764Z,45.73
2017-09-13T03:44:32.087Z,45.57
2017-09-13T03:47:17.347Z,45.53
2017-09-13T03:49:45.000Z,45.48
2017-09-13T03:52:12.639Z,45.22
2017-09-13T03:54:41.340Z,45.09
2017-09-13T03:57:08.954Z,44.98
2017-09-13T03:59:36.499Z,45.09
2017-09-13T04:02:04.346Z,44.63
2017-09-13T04:04:31.994Z,44.75
2017-09-13T04:07:03.350Z,44.73
2017-09-13T04:09:46.076Z,44.67
2017-09-13T04:12:13.727Z,44.58
2017-09-13T04:14:41.400Z,44.19
2017-09-13T04:17:19.864Z,44.22
2017-09-13T04:19:47.625Z,43.98
2017-09-13T04:22:15.177Z,43.66
2017-09-13T04:24:42.747Z,43.74
2017-09-13T04:29:50.990Z,42.66
2017-09-13T04:32:19.230Z,42.41
2017-09-13T04:34:46.833Z,42.54
2017-09-13T04:37:14.513Z,42.30
2017-09-13T04:39:43.004Z,42.58
2017-09-13T04:42:13.736Z,41.65
2017-09-13T04:47:15.263Z,40.67
2017-09-13T04:49:43.078Z,40.47
2017-09-13T04:52:10.790Z,40.19
2017-09-13T04:54:38.505Z,39.99
2017-09-13T04:57:06.088Z,39.84
2017-09-13T04:59:35.052Z,40.67
2017-09-13T05:02:03.280Z,40.81
2017-09-13T05:04:30.911Z,41.23
2017-09-13T05:07:05.945Z,41.59
2017-09-13T05:09:33.583Z,42.43
2017-09-13T05:14:52.772Z,42.36
2017-09-13T05:17:21.073Z,41.84
2017-09-13T05:19:49.741Z,42.13
2017-09-13T05:22:21.675Z,42.15
2017-09-13T05:27:35.056Z,42.17
2017-09-13T05:30:13.578Z,42.51
2017-09-13T05:35:17.239Z,42.07
2017-09-13T05:37:45.561Z,42.10
2017-09-13T05:48:24.560Z,42.50
2017-09-13T05:50:55.726Z,41.93
2017-09-13T05:53:30.435Z,42.21
2017-09-13T06:17:05.089Z,42.08
2017-09-13T06:22:37.387Z,42.21
2017-09-13T06:27:41.520Z,41.93
2017-09-13T06:30:13.929Z,42.01
2017-09-13T06:33:17.426Z,41.91
2017-09-13T06:43:18.671Z,41.63
2017-09-13T06:45:51.794Z,42.01
2017-09-13T06:48:30.280Z,41.78
2017-09-13T06:51:05.374Z,41.73
2017-09-13T06:53:45.778Z,41.90
2017-09-13T06:56:13.797Z,41.58
2017-09-13T07:01:18.235Z,41.38
2017-09-13T07:10:01.606Z,41.67
2017-09-13T08:08:19.317Z,40.57
2017-09-13T08:11:02.795Z,40.67
2017-09-13T08:58:26.308Z,40.29
2017-09-13T09:01:26.768Z,40.09
2017-09-13T09:20:52.127Z,39.71
2017-09-13T09:30:01.888Z,39.57
2017-09-13T09:38:40.624Z,39.76
2017-09-13T10:04:29.614Z,39.47
2017-09-13T10:06:58.041Z,39.19
2017-09-13T10:14:53.978Z,39.30
2017-09-13T10:17:21.900Z,39.24
2017-09-13T10:19:49.741Z,39.24
2017-09-13T10:31:14.646Z,39.28
2017-09-13T10:33:43.027Z,39.26
2017-09-13T10:36:16.375Z,39.09
2017-09-13T10:41:55.238Z,39.17
2017-09-13T10:46:55.270Z,39.27
2017-09-13T11:05:45.462Z,39.62
2017-09-13T11:08:13.961Z,39.46
2017-09-13T11:10:43.685Z,39.65
2017-09-13T11:13:15.315Z,39.45
2017-09-13T11:21:47.229Z,39.79
2017-09-13T11:24:16.683Z,39.64
2017-09-13T11:26:45.360Z,39.87
2017-09-13T11:29:17.408Z,39.63
2017-09-13T11:31:55.926Z,39.74
2017-09-13T11:34:26.574Z,39.71
2017-09-13T11:42:15.965Z,39.75
2017-09-13T11:47:15.652Z,39.95
2017-09-13T11:49:52.299Z,39.83
2017-09-13T11:52:23.492Z,40.00
2017-09-13T11:54:52.735Z,40.04
2017-09-13T12:00:07.051Z,40.02
2017-09-13T12:05:08.627Z,39.94
2017-09-13T12:07:53.814Z,40.08
2017-09-13T12:12:54.408Z,39.88
2017-09-13T12:15:22.307Z,40.17
2017-09-13T12:17:51.091Z,40.07
2017-09-13T12:23:34.101Z,40.24
2017-09-13T12:26:04.795Z,40.13
2017-09-13T12:28:35.507Z,40.22
2017-09-13T12:31:05.316Z,40.28
2017-09-13T12:36:10.276Z,40.07
2017-09-13T12:38:38.549Z,40.23
2017-09-13T12:46:33.864Z,40.27
2017-09-13T12:49:08.727Z,40.15
2017-09-13T12:57:43.616Z,40.49
2017-09-13T13:10:44.481Z,40.36
2017-09-13T13:18:54.161Z,40.54
2017-09-13T13:23:55.411Z,40.54
2017-09-13T13:26:24.974Z,40.52
2017-09-13T13:28:53.853Z,40.49
2017-09-13T13:31:37.496Z,40.49
2017-09-13T13:34:09.772Z,40.61
2017-09-13T13:36:41.945Z,40.36
2017-09-13T13:41:44.052Z,40.45
2017-09-13T13:55:20.111Z,40.72
2017-09-13T13:57:47.893Z,40.57
2017-09-13T14:24:34.419Z,40.13
2017-09-13T14:27:06.157Z,40.04
2017-09-13T14:32:12.374Z,40.01
2017-09-13T14:34:40.073Z,39.90
2017-09-13T14:37:09.208Z,39.96
2017-09-13T14:39:38.520Z,39.86
2017-09-13T14:42:11.201Z,39.61
2017-09-13T14:44:40.981Z,39.62
2017-09-13T14:47:10.007Z,39.33
2017-09-13T14:49:43.090Z,39.31
2017-09-13T14:57:17.243Z,38.88
2017-09-13T15:07:29.215Z,38.68
2017-09-13T15:15:08.021Z,38.39
2017-09-13T15:25:23.029Z,38.09
2017-09-13T15:38:08.063Z,37.58
2017-09-13T15:40:36.032Z,37.64
2017-09-13T15:45:37.072Z,37.47
2017-09-13T16:04:03.333Z,37.02
2017-09-13T16:06:43.797Z,36.87
2017-09-13T16:09:12.287Z,36.88
2017-09-13T16:19:20.422Z,36.43
2017-09-13T16:21:49.620Z,36.46
2017-09-13T16:24:19.970Z,36.30
2017-09-13T16:26:47.709Z,36.37
2017-09-13T16:29:30.131Z,36.18
2017-09-13T16:31:59.760Z,36.19
2017-09-13T16:37:01.641Z,36.05
2017-09-13T16:39:36.833Z,35.99
2017-09-13T16:42:04.508Z,35.94
2017-09-13T16:44:32.938Z,36.03
2017-09-13T16:54:50.016Z,35.96
2017-09-13T16:57:17.674Z,35.95
2017-09-13T16:59:45.343Z,35.83
2017-09-13T17:02:23.892Z,36.04
2017-09-13T17:04:52.032Z,36.29
2017-09-13T17:07:20.604Z,35.95
2017-09-13T17:12:21.430Z,36.18
2017-09-13T17:14:49.271Z,36.19
2017-09-13T17:22:58.445Z,36.72
2017-09-13T17:25:26.343Z,36.74
2017-09-13T17:27:53.913Z,36.81
2017-09-13T17:30:21.907Z,36.82
2017-09-13T17:35:34.916Z,36.95
2017-09-13T17:38:02.643Z,37.00
2017-09-13T17:40:30.227Z,37.09
2017-09-13T17:42:57.805Z,37.04
2017-09-13T17:45:31.022Z,37.04
2017-09-13T17:50:31.747Z,36.91
2017-09-13T17:52:59.348Z,36.91
2017-09-13T17:55:27.138Z,36.66
2017-09-13T18:05:33.967Z,36.43
2017-09-13T18:08:09.209Z,36.56
2017-09-13T18:10:38.643Z,37.70
2017-09-13T18:13:10.296Z,36.65
2017-09-13T18:15:42.524Z,36.64
2017-09-13T18:20:46.886Z,36.80
2017-09-13T18:23:14.534Z,36.79
2017-09-13T18:25:42.294Z,36.91
2017-09-13T18:28:10.045Z,36.87
2017-09-13T18:30:37.706Z,36.88
2017-09-13T18:33:05.319Z,37.03
2017-09-13T18:35:34.242Z,36.99
2017-09-13T18:38:02.346Z,36.96
2017-09-13T18:40:31.218Z,37.01
2017-09-13T18:43:05.208Z,36.95
2017-09-13T18:48:08.594Z,37.11
2017-09-13T18:50:39.005Z,37.19
2017-09-13T18:53:06.581Z,37.20
2017-09-13T18:55:34.123Z,37.25
2017-09-13T18:58:01.929Z,37.21
2017-09-13T19:00:29.495Z,37.31
2017-09-13T19:02:58.078Z,37.31
2017-09-13T19:05:25.914Z,37.33
2017-09-13T19:10:27.317Z,37.41
2017-09-13T19:12:55.195Z,37.51
2017-09-13T19:15:22.864Z,37.71
2017-09-13T19:17:50.734Z,37.62
2017-09-13T19:20:20.436Z,37.61
2017-09-13T19:22:49.413Z,37.85
2017-09-13T19:25:17.100Z,37.68
2017-09-13T19:27:44.673Z,37.64
2017-09-13T19:30:12.324Z,37.68
2017-09-13T19:32:40.638Z,37.69
2017-09-13T19:35:09.123Z,37.80
2017-09-13T19:37:37.814Z,37.78
2017-09-13T19:47:51.910Z,38.12
2017-09-13T19:53:00.402Z,38.14
2017-09-13T19:55:28.039Z,38.18
2017-09-13T19:57:55.633Z,38.26
2017-09-13T20:00:23.429Z,38.32
2017-09-13T20:02:50.970Z,38.44
2017-09-13T20:05:19.524Z,38.49
2017-09-13T20:07:47.093Z,38.44
2017-09-13T20:10:14.635Z,38.50
2017-09-13T20:12:42.553Z,38.69
2017-09-13T20:15:10.080Z,38.64
2017-09-13T20:17:37.684Z,38.54
2017-09-13T20:20:05.386Z,38.71
2017-09-13T20:22:32.921Z,38.65
2017-09-13T20:25:00.467Z,38.70
2017-09-13T20:27:28.068Z,38.87
2017-09-13T20:29:55.701Z,38.75
2017-09-13T20:32:23.263Z,38.87
2017-09-13T20:34:50.880Z,38.83
2017-09-13T20:37:18.445Z,38.98
2017-09-13T20:39:46.080Z,38.97
2017-09-13T20:42:14.001Z,38.92
2017-09-13T20:44:41.539Z,38.90
2017-09-13T20:47:09.149Z,39.00
2017-09-13T20:49:36.789Z,39.06
2017-09-13T20:52:04.378Z,39.02
2017-09-13T20:54:31.918Z,39.10
2017-09-13T20:56:59.566Z,39.12
2017-09-13T20:59:27.167Z,39.12
2017-09-13T21:01:54.758Z,39.18
2017-09-13T21:04:22.475Z,39.12
2017-09-13T21:06:50.056Z,39.19
2017-09-13T21:09:18.115Z,39.29
2017-09-13T21:11:45.777Z,39.20
2017-09-13T21:14:13.371Z,39.20
2017-09-13T21:16:41.385Z,39.24
2017-09-13T21:19:09.113Z,39.29
2017-09-13T21:21:37.248Z,39.34
2017-09-13T21:24:06.651Z,39.34
2017-09-13T21:26:34.278Z,39.32
2017-09-13T21:29:01.888Z,39.37
2017-09-13T21:31:29.642Z,39.36
2017-09-13T21:33:57.431Z,39.32
2017-09-13T21:36:26.059Z,39.43
2017-09-13T21:38:53.746Z,39.41
2017-09-13T21:41:21.376Z,39.41
2017-09-13T21:43:49.003Z,39.42
2017-09-13T21:46:16.690Z,39.41
2017-09-13T21:48:46.547Z,39.47
2017-09-13T21:51:15.846Z,39.53
2017-09-13T22:01:52.641Z,39.63
2017-09-13T22:04:20.301Z,39.55
2017-09-13T22:10:01.624Z,39.54
2017-09-13T22:12:29.207Z,39.58
2017-09-13T22:14:56.806Z,39.68
2017-09-13T22:17:24.384Z,39.68
2017-09-13T22:19:52.010Z,39.52
2017-09-13T22:22:21.212Z,39.58
2017-09-13T22:24:49.042Z,39.60
2017-09-13T22:27:16.724Z,39.75
2017-09-13T22:29:44.414Z,39.65
2017-09-13T22:32:12.021Z,39.62
2017-09-13T22:34:39.659Z,39.74
2017-09-13T22:37:07.307Z,39.64
2017-09-13T22:39:34.905Z,39.68
2017-09-13T22:42:02.543Z,39.83
2017-09-13T22:44:30.294Z,39.72
2017-09-13T22:46:57.823Z,39.73
2017-09-13T22:49:25.533Z,39.76
2017-09-13T22:51:53.068Z,39.75
2017-09-13T22:54:20.694Z,39.74
2017-09-13T22:56:48.398Z,39.76
2017-09-13T22:59:16.133Z,39.78
2017-09-13T23:01:44.115Z,39.76
2017-09-13T23:04:13.062Z,39.78
2017-09-13T23:06:40.628Z,39.84
2017-09-13T23:09:09.181Z,39.81
2017-09-13T23:14:09.830Z,39.82
2017-09-13T23:19:09.917Z,39.90
2017-09-13T23:21:37.564Z,39.87
2017-09-13T23:24:05.164Z,39.97
2017-09-13T23:26:32.805Z,39.96
2017-09-13T23:29:00.392Z,39.88
2017-09-13T23:31:29.275Z,39.93
2017-09-13T23:33:57.224Z,39.96
2017-09-13T23:36:25.749Z,39.95
2017-09-13T23:38:53.334Z,39.99
2017-09-13T23:41:21.069Z,39.97
2017-09-13T23:43:48.807Z,40.06
2017-09-13T23:46:16.662Z,40.00
2017-09-13T23:48:44.287Z,40.00
2017-09-13T23:51:11.810Z,40.05
2017-09-13T23:53:39.381Z,40.02
2017-09-13T23:56:06.967Z,40.01
2017-09-13T23:58:34.596Z,40.03
